createdAt,value
2019-04-10T00:01:30.515Z,6.60
2019-04-10T00:03:59.206Z,6.50
2019-04-10T00:06:27.912Z,6.50
2019-04-10T00:08:56.831Z,6.40
2019-04-10T00:11:25.468Z,6.40
2019-04-10T00:13:55.274Z,6.40
2019-04-10T00:16:24.489Z,6.40
2019-04-10T00:18:53.989Z,6.30
2019-04-10T00:21:23.010Z,6.30
2019-04-10T00:23:51.666Z,6.20
2019-04-10T00:26:21.552Z,6.20
2019-04-10T00:28:50.293Z,6.20
2019-04-10T00:31:19.935Z,6.10
2019-04-10T00:33:49.287Z,6.10
2019-04-10T00:36:18.209Z,6.10
2019-04-10T00:38:46.966Z,6.00
2019-04-10T00:41:18.561Z,6.00
2019-04-10T00:43:47.267Z,6.00
2019-04-10T00:46:15.933Z,6.00
2019-04-10T00:48:44.539Z,5.90
2019-04-10T00:51:13.253Z,5.90
2019-04-10T00:53:41.944Z,5.90
2019-04-10T00:56:10.564Z,5.80
2019-04-10T00:58:39.594Z,5.80
2019-04-10T01:01:08.252Z,5.80
2019-04-10T01:03:43.238Z,5.70
2019-04-10T01:06:13.926Z,5.70
2019-04-10T01:08:42.816Z,5.60
2019-04-10T01:11:11.753Z,5.60
2019-04-10T01:13:41.089Z,5.60
2019-04-10T01:16:11.205Z,5.50
2019-04-10T01:18:39.945Z,5.50
2019-04-10T01:21:08.595Z,5.40
2019-04-10T01:23:38.046Z,5.40
2019-04-10T01:26:07.305Z,5.30
2019-04-10T01:28:36.668Z,5.30
2019-04-10T01:31:06.644Z,5.30
2019-04-10T01:33:36.738Z,5.30
2019-04-10T01:36:05.594Z,5.20
2019-04-10T01:38:34.262Z,5.10
2019-04-10T01:41:03.602Z,5.10
2019-04-10T01:43:32.982Z,5.10
2019-04-10T01:46:02.114Z,5.10
2019-04-10T01:48:30.789Z,5.00
2019-04-10T01:50:59.482Z,5.00
2019-04-10T01:53:28.152Z,4.90
2019-04-10T01:55:57.631Z,4.90
2019-04-10T01:58:27.283Z,4.90
2019-04-10T02:00:57.729Z,4.90
2019-04-10T02:03:26.428Z,4.80
2019-04-10T02:05:55.145Z,4.80
2019-04-10T02:08:23.881Z,4.80
2019-04-10T02:10:52.515Z,4.70
2019-04-10T02:13:21.309Z,4.70
2019-04-10T02:15:50.257Z,4.60
2019-04-10T02:18:19.369Z,4.60
2019-04-10T02:20:49.335Z,4.60
2019-04-10T02:23:19.125Z,4.50
2019-04-10T02:25:47.977Z,4.50
2019-04-10T02:28:16.582Z,4.50
2019-04-10T02:30:45.984Z,4.50
2019-04-10T02:33:15.903Z,4.50
2019-04-10T02:35:45.453Z,4.40
2019-04-10T02:38:31.004Z,4.40
2019-04-10T02:40:45.649Z,4.40
2019-04-10T02:43:15.941Z,4.30
2019-04-10T02:45:44.907Z,4.30
2019-04-10T02:48:15.035Z,4.30
2019-04-10T02:50:44.954Z,4.30
2019-04-10T02:53:15.375Z,4.20
2019-04-10T02:55:44.247Z,4.20
2019-04-10T02:58:14.218Z,4.20
2019-04-10T03:00:44.130Z,4.20
2019-04-10T03:03:13.822Z,4.10
2019-04-10T03:05:42.849Z,4.10
2019-04-10T03:08:12.996Z,4.10
2019-04-10T03:10:49.712Z,4.00
2019-04-10T03:13:13.754Z,4.00
2019-04-10T03:15:43.426Z,4.00
2019-04-10T03:18:12.721Z,4.00
2019-04-10T03:20:42.594Z,3.90
2019-04-10T03:23:11.627Z,3.90
2019-04-10T03:25:41.289Z,3.80
2019-04-10T03:28:11.087Z,3.80
2019-04-10T03:30:41.558Z,3.70
2019-04-10T03:33:26.144Z,3.70
2019-04-10T03:35:53.188Z,3.70
2019-04-10T03:38:21.823Z,3.70
2019-04-10T03:40:51.421Z,3.60
2019-04-10T03:43:20.269Z,3.50
2019-04-10T03:45:48.951Z,3.50
2019-04-10T03:48:17.555Z,3.50
2019-04-10T03:50:46.347Z,3.50
2019-04-10T03:53:15.798Z,3.40
2019-04-10T03:55:45.251Z,3.30
2019-04-10T03:58:14.243Z,3.30
2019-04-10T04:00:43.103Z,3.30
2019-04-10T04:03:12.745Z,3.30
2019-04-10T04:05:42.497Z,3.20
2019-04-10T04:08:11.431Z,3.20
2019-04-10T04:10:40.475Z,3.20
2019-04-10T04:13:09.179Z,3.10
2019-04-10T04:15:37.983Z,3.10
2019-04-10T04:18:06.812Z,3.10
2019-04-10T04:20:35.558Z,3.00
2019-04-10T04:23:05.370Z,3.00
2019-04-10T04:25:34.513Z,2.90
2019-04-10T04:28:03.223Z,2.90
2019-04-10T04:30:32.095Z,2.90
2019-04-10T04:33:00.799Z,2.90
2019-04-10T04:35:31.013Z,2.80
2019-04-10T04:38:00.449Z,2.80
2019-04-10T04:40:30.035Z,2.80
2019-04-10T04:42:58.722Z,2.70
2019-04-10T04:45:27.855Z,2.80
2019-04-10T04:47:57.608Z,2.70
2019-04-10T04:50:27.032Z,2.70
2019-04-10T04:52:56.002Z,2.60
2019-04-10T04:55:24.691Z,2.70
2019-04-10T04:57:53.548Z,2.60
2019-04-10T05:00:22.310Z,2.60
2019-04-10T05:02:51.483Z,2.60
2019-04-10T05:05:20.322Z,2.60
2019-04-10T05:07:56.375Z,2.60
2019-04-10T05:10:19.327Z,2.60
2019-04-10T05:12:48.006Z,2.60
2019-04-10T05:15:16.674Z,2.60
2019-04-10T05:17:45.281Z,2.70
2019-04-10T05:20:14.824Z,2.70
2019-04-10T05:22:43.649Z,2.80
2019-04-10T05:25:13.255Z,2.80
2019-04-10T05:27:41.953Z,2.80
2019-04-10T05:30:11.193Z,2.90
2019-04-10T05:32:39.851Z,3.00
2019-04-10T05:35:09.993Z,3.10
2019-04-10T05:37:39.977Z,3.20
2019-04-10T05:40:09.795Z,3.20
2019-04-10T05:42:39.527Z,3.30
2019-04-10T05:45:09.199Z,3.40
2019-04-10T05:47:38.798Z,3.50
2019-04-10T05:50:07.660Z,3.60
2019-04-10T05:52:37.388Z,3.60
2019-04-10T05:55:06.985Z,3.70
2019-04-10T05:57:35.607Z,3.80
2019-04-10T06:00:09.067Z,3.90
2019-04-10T06:02:37.751Z,4.00
2019-04-10T06:05:07.877Z,4.00
2019-04-10T06:07:37.138Z,4.10
2019-04-10T06:10:10.240Z,4.20
2019-04-10T06:12:38.347Z,4.30
2019-04-10T06:15:10.731Z,4.40
2019-04-10T06:17:40.595Z,4.60
2019-04-10T06:20:09.836Z,4.90
2019-04-10T06:22:38.908Z,5.20
2019-04-10T06:25:10.838Z,5.50
2019-04-10T06:27:38.864Z,5.70
2019-04-10T06:30:08.275Z,6.10
2019-04-10T06:32:37.726Z,6.50
2019-04-10T06:35:08.091Z,6.80
2019-04-10T06:37:37.989Z,7.00
2019-04-10T06:40:16.413Z,7.20
2019-04-10T06:42:46.195Z,7.60
2019-04-10T06:45:09.425Z,8.00
2019-04-10T06:47:38.299Z,8.20
2019-04-10T06:50:07.764Z,8.30
2019-04-10T06:52:36.697Z,8.30
2019-04-10T06:55:07.134Z,8.60
2019-04-10T06:57:46.836Z,8.60
2019-04-10T07:00:14.510Z,8.70
2019-04-10T07:02:39.719Z,8.90
2019-04-10T07:05:10.504Z,9.30
2019-04-10T07:07:47.731Z,9.30
2019-04-10T07:10:21.555Z,9.50
2019-04-10T07:12:39.889Z,9.50
2019-04-10T07:15:10.662Z,10.00
2019-04-10T07:17:41.703Z,10.30
2019-04-10T07:20:10.026Z,10.60
2019-04-10T07:22:43.313Z,10.70
2019-04-10T07:25:11.194Z,11.00
2019-04-10T07:27:40.497Z,11.40
2019-04-10T07:30:09.922Z,11.20
2019-04-10T07:32:42.151Z,11.40
2019-04-10T07:35:09.029Z,11.70
2019-04-10T07:37:37.681Z,11.90
2019-04-10T07:40:10.028Z,12.30
2019-04-10T07:42:41.529Z,12.60
2019-04-10T07:45:09.592Z,12.80
2019-04-10T07:47:38.273Z,13.10
2019-04-10T07:50:08.925Z,13.20
2019-04-10T07:52:37.942Z,13.70
2019-04-10T07:55:08.623Z,13.70
2019-04-10T07:57:38.400Z,13.90
2019-04-10T08:00:09.694Z,14.10
2019-04-10T08:02:38.579Z,14.10
2019-04-10T08:05:08.172Z,14.30
2019-04-10T08:07:38.846Z,14.40
2019-04-10T08:10:07.968Z,14.40
2019-04-10T08:12:44.835Z,14.70
2019-04-10T08:15:09.000Z,14.90
2019-04-10T08:17:38.880Z,14.90
2019-04-10T08:20:08.239Z,14.90
2019-04-10T08:22:37.113Z,14.90
2019-04-10T08:25:09.089Z,15.00
2019-04-10T08:27:38.453Z,15.10
2019-04-10T08:30:10.848Z,15.20
2019-04-10T08:32:50.926Z,15.50
2019-04-10T08:35:09.384Z,15.80
2019-04-10T08:37:39.096Z,15.70
2019-04-10T08:40:09.792Z,15.70
2019-04-10T08:42:40.156Z,16.00
2019-04-10T08:45:09.259Z,16.10
2019-04-10T08:47:38.142Z,16.10
2019-04-10T08:50:07.781Z,15.90
2019-04-10T08:52:37.078Z,16.40
2019-04-10T08:55:06.284Z,16.80
2019-04-10T08:57:36.119Z,16.30
2019-04-10T09:00:08.757Z,16.40
2019-04-10T09:02:38.118Z,17.00
2019-04-10T09:05:09.470Z,17.50
2019-04-10T09:07:38.381Z,17.60
2019-04-10T09:10:07.394Z,17.70
2019-04-10T09:12:36.055Z,18.10
2019-04-10T09:15:07.669Z,17.90
2019-04-10T09:17:37.668Z,18.10
2019-04-10T09:20:08.802Z,18.40
2019-04-10T09:22:57.988Z,18.40
2019-04-10T09:25:09.156Z,18.30
2019-04-10T09:27:38.139Z,18.30
2019-04-10T09:30:08.855Z,18.60
2019-04-10T09:32:38.874Z,18.70
2019-04-10T09:35:08.788Z,19.00
2019-04-10T09:37:38.055Z,19.00
2019-04-10T09:40:08.882Z,19.20
2019-04-10T09:42:37.595Z,19.60
2019-04-10T09:45:07.356Z,19.20
2019-04-10T09:47:35.962Z,19.60
2019-04-10T09:50:06.347Z,19.90
2019-04-10T09:52:35.668Z,19.70
2019-04-10T09:55:07.340Z,20.20
2019-04-10T09:57:36.733Z,20.10
2019-04-10T10:00:07.903Z,20.40
2019-04-10T10:02:37.866Z,20.30
2019-04-10T10:05:06.973Z,20.30
2019-04-10T10:07:36.796Z,20.20
2019-04-10T10:10:08.783Z,19.70
2019-04-10T10:12:38.535Z,19.50
2019-04-10T10:15:09.440Z,19.50
2019-04-10T10:17:39.272Z,19.30
2019-04-10T10:20:08.659Z,19.00
2019-04-10T10:22:37.364Z,18.70
2019-04-10T10:25:08.001Z,18.70
2019-04-10T10:27:37.078Z,18.80
2019-04-10T10:30:09.257Z,19.30
2019-04-10T10:32:39.179Z,18.80
2019-04-10T10:35:09.278Z,18.20
2019-04-10T10:37:38.823Z,17.80
2019-04-10T10:40:10.143Z,17.40
2019-04-10T10:42:40.992Z,17.20
2019-04-10T10:45:10.481Z,17.60
2019-04-10T10:47:40.434Z,17.40
2019-04-10T10:50:09.458Z,16.70
2019-04-10T10:52:38.214Z,16.50
2019-04-10T10:55:07.645Z,16.50
2019-04-10T10:57:37.490Z,16.50
2019-04-10T11:00:08.406Z,15.90
2019-04-10T11:02:38.237Z,15.60
2019-04-10T11:05:07.377Z,16.10
2019-04-10T11:07:38.681Z,16.60
2019-04-10T11:10:08.612Z,16.90
2019-04-10T11:12:38.384Z,16.90
2019-04-10T11:15:09.977Z,17.00
2019-04-10T11:17:40.319Z,17.20
2019-04-10T11:20:12.621Z,17.20
2019-04-10T11:22:42.380Z,17.20
2019-04-10T11:25:12.192Z,16.80
2019-04-10T11:27:42.039Z,16.70
2019-04-10T11:30:12.657Z,16.80
2019-04-10T11:32:42.332Z,16.70
2019-04-10T11:35:13.088Z,16.50
2019-04-10T11:37:46.836Z,16.20
2019-04-10T11:40:16.274Z,15.80
2019-04-10T11:42:44.698Z,15.80
2019-04-10T11:45:17.076Z,16.10
2019-04-10T11:47:47.465Z,16.50
2019-04-10T11:50:18.388Z,16.90
2019-04-10T11:52:52.489Z,17.00
2019-04-10T11:55:21.209Z,16.70
2019-04-10T11:57:49.730Z,16.40
2019-04-10T12:00:23.730Z,15.80
2019-04-10T12:02:52.728Z,15.70
2019-04-10T12:05:22.106Z,15.40
2019-04-10T12:08:22.077Z,14.90
2019-04-10T12:12:52.455Z,14.80
2019-04-10T12:15:21.282Z,15.00
2019-04-10T12:17:49.986Z,15.50
2019-04-10T12:20:18.817Z,15.80
2019-04-10T12:22:48.314Z,15.80
2019-04-10T12:25:17.379Z,15.80
2019-04-10T12:27:47.332Z,15.50
2019-04-10T12:30:17.405Z,15.70
2019-04-10T12:32:47.475Z,16.10
2019-04-10T12:35:17.122Z,15.90
2019-04-10T12:37:46.018Z,15.10
2019-04-10T12:40:15.279Z,14.80
2019-04-10T12:42:44.213Z,14.60
2019-04-10T12:45:13.576Z,14.30
2019-04-10T12:47:42.399Z,14.30
2019-04-10T12:50:12.146Z,14.20
2019-04-10T12:52:40.979Z,14.50
2019-04-10T12:55:10.216Z,14.50
2019-04-10T12:57:39.184Z,14.70
2019-04-10T13:00:11.884Z,14.70
2019-04-10T13:02:40.783Z,14.60
2019-04-10T13:05:09.597Z,14.50
2019-04-10T13:07:38.254Z,14.60
2019-04-10T13:10:10.719Z,14.60
2019-04-10T13:12:39.758Z,14.50
2019-04-10T13:15:09.298Z,14.60
2019-04-10T13:17:38.592Z,14.50
2019-04-10T13:20:10.470Z,14.30
2019-04-10T13:22:40.121Z,14.40
2019-04-10T13:25:10.159Z,14.20
2019-04-10T13:27:39.508Z,14.40
2019-04-10T13:30:12.876Z,14.40
2019-04-10T13:32:40.960Z,14.40
2019-04-10T13:35:10.419Z,14.40
2019-04-10T13:37:39.160Z,14.50
2019-04-10T13:40:08.651Z,14.50
2019-04-10T13:42:37.353Z,14.40
2019-04-10T13:45:07.923Z,14.20
2019-04-10T13:47:36.817Z,14.40
2019-04-10T13:50:08.712Z,14.50
2019-04-10T13:52:39.089Z,14.40
2019-04-10T13:55:10.080Z,14.40
2019-04-10T13:57:39.259Z,14.40
2019-04-10T14:00:11.306Z,14.30
2019-04-10T14:02:40.084Z,14.20
2019-04-10T14:05:13.748Z,14.30
2019-04-10T14:07:42.499Z,14.50
2019-04-10T14:10:12.558Z,14.40
2019-04-10T14:12:41.276Z,14.50
2019-04-10T14:15:09.991Z,14.50
2019-04-10T14:17:41.646Z,14.50
2019-04-10T14:20:11.081Z,14.40
2019-04-10T14:22:50.479Z,14.40
